Time;durP1;ratioP1;P1;durP2;ratioP2;P2;SDS_P1;SDS_P2;PMS_P1;PMS_P2;Temp;Humidity;BMP_temperature;BMP_pressure;BME280_temperature;BME280_humidity;BME280_pressure;Samples;Min_cycle;Max_cycle;Signal;HPM_P1;HPM_P2
2024/01/27 00:01:34;;;;;;;10.43;5.50;;;7.30;99.90;;;;;;4997365;28;21252;-70
2024/01/27 00:04:00;;;;;;;13.50;5.47;;;7.30;99.90;;;;;;4995025;28;20471;-70
2024/01/27 00:06:26;;;;;;;8.43;5.37;;;7.30;99.90;;;;;;4990649;28;20293;-69
2024/01/27 00:08:51;;;;;;;8.70;5.20;;;7.20;99.90;;;;;;4997359;28;20625;-69
2024/01/27 00:11:17;;;;;;;10.57;5.20;;;7.20;99.90;;;;;;4993773;28;20290;-69
2024/01/27 00:13:43;;;;;;;8.27;4.40;;;7.20;99.90;;;;;;4997590;28;20211;-69
2024/01/27 00:16:09;;;;;;;6.90;4.70;;;7.20;99.90;;;;;;4999016;28;20193;-69
2024/01/27 00:18:37;;;;;;;8.73;5.17;;;7.20;99.90;;;;;;5001841;28;20196;-69
2024/01/27 00:21:03;;;;;;;8.57;5.17;;;7.20;99.90;;;;;;4999405;28;20460;-69
2024/01/27 00:23:28;;;;;;;9.23;5.03;;;7.20;99.90;;;;;;4995712;28;20519;-69
2024/01/27 00:25:54;;;;;;;9.53;5.50;;;7.10;99.90;;;;;;4998771;28;21123;-69
2024/01/27 00:28:19;;;;;;;8.47;4.90;;;7.10;99.90;;;;;;4993159;28;20233;-69
2024/01/27 00:30:45;;;;;;;13.00;5.90;;;7.10;99.90;;;;;;4992582;28;20213;-69
2024/01/27 00:33:11;;;;;;;10.10;5.80;;;7.10;99.90;;;;;;5010503;28;20280;-69
2024/01/27 00:35:36;;;;;;;9.80;4.63;;;7.10;99.90;;;;;;4995564;28;20221;-70
2024/01/27 00:38:02;;;;;;;7.23;4.37;;;7.00;99.90;;;;;;4998539;28;20235;-69
2024/01/27 00:40:28;;;;;;;6.13;3.77;;;7.00;99.90;;;;;;4996773;28;20189;-69
2024/01/27 00:42:54;;;;;;;7.47;4.50;;;7.00;99.90;;;;;;4995498;28;20767;-69
2024/01/27 00:45:22;;;;;;;6.83;4.53;;;6.90;99.90;;;;;;4994890;28;20215;-69
2024/01/27 00:47:51;;;;;;;7.13;4.57;;;6.90;99.90;;;;;;4996814;28;20834;-69
2024/01/27 00:50:17;;;;;;;6.23;3.83;;;6.90;99.90;;;;;;4996889;28;20965;-69
2024/01/27 00:52:42;;;;;;;7.20;4.40;;;6.90;99.90;;;;;;4994551;28;20490;-69
2024/01/27 00:55:08;;;;;;;8.70;4.30;;;6.90;99.90;;;;;;5000172;28;20231;-69
2024/01/27 00:57:37;;;;;;;7.50;4.07;;;6.90;99.90;;;;;;5000642;28;20306;-69
2024/01/27 01:00:06;;;;;;;7.10;4.10;;;6.90;99.90;;;;;;4993925;28;20455;-69
2024/01/27 01:02:32;;;;;;;6.47;4.40;;;6.90;99.90;;;;;;4997717;28;20416;-69
2024/01/27 01:04:57;;;;;;;7.30;4.20;;;6.90;99.90;;;;;;4998161;28;20436;-69
2024/01/27 01:07:23;;;;;;;4.50;3.73;;;6.90;99.90;;;;;;4994515;28;20220;-69
2024/01/27 01:09:49;;;;;;;8.73;4.10;;;6.70;99.90;;;;;;4996137;28;20216;-69
2024/01/27 01:12:15;;;;;;;7.70;3.90;;;6.70;99.90;;;;;;4999742;28;20189;-69
2024/01/27 01:14:41;;;;;;;6.40;3.83;;;6.70;99.90;;;;;;5001475;28;20657;-69
2024/01/27 01:17:07;;;;;;;5.57;3.77;;;6.60;99.90;;;;;;4997899;28;20487;-69
2024/01/27 01:19:32;;;;;;;8.90;4.43;;;6.60;99.90;;;;;;4994431;28;20507;-69
2024/01/27 01:21:58;;;;;;;6.00;4.10;;;6.60;99.90;;;;;;4994084;28;20290;-69
2024/01/27 01:24:23;;;;;;;6.47;4.03;;;6.60;99.90;;;;;;4997398;28;20197;-69
2024/01/27 01:26:49;;;;;;;7.53;4.30;;;6.50;99.90;;;;;;4996697;28;20246;-69
2024/01/27 01:29:14;;;;;;;9.87;4.50;;;6.50;99.90;;;;;;4996263;28;20192;-70
2024/01/27 01:31:42;;;;;;;8.20;4.60;;;6.50;99.90;;;;;;4996581;28;20219;-69
2024/01/27 01:34:08;;;;;;;6.00;3.87;;;6.50;99.90;;;;;;4996229;28;20240;-69
2024/01/27 01:36:34;;;;;;;6.90;3.90;;;6.50;99.90;;;;;;4990701;28;20413;-69
2024/01/27 01:38:59;;;;;;;6.13;4.17;;;6.50;99.90;;;;;;4994416;28;20173;-69
2024/01/27 01:41:25;;;;;;;7.90;4.13;;;6.50;99.90;;;;;;4993903;28;20245;-69
2024/01/27 01:43:51;;;;;;;11.07;3.90;;;6.50;99.90;;;;;;4997115;28;20731;-69
2024/01/27 01:46:17;;;;;;;7.67;3.90;;;6.50;99.90;;;;;;4994205;28;20188;-69
2024/01/27 01:48:42;;;;;;;6.43;3.97;;;6.50;99.90;;;;;;4996875;28;20178;-69
2024/01/27 01:51:09;;;;;;;9.10;4.77;;;6.50;99.90;;;;;;4994885;28;20544;-68
2024/01/27 01:53:34;;;;;;;6.07;4.10;;;6.50;99.90;;;;;;4994654;28;20202;-68
2024/01/27 01:56:01;;;;;;;5.90;4.10;;;6.50;99.90;;;;;;4998682;28;20420;-68
2024/01/27 01:58:33;;;;;;;9.50;4.10;;;6.50;99.90;;;;;;4997621;28;20481;-69
2024/01/27 02:01:00;;;;;;;8.67;3.90;;;6.40;99.90;;;;;;4992995;28;21578;-69
2024/01/27 02:03:25;;;;;;;5.73;3.50;;;6.40;99.90;;;;;;4992860;28;20544;-69
2024/01/27 02:05:51;;;;;;;8.80;4.50;;;6.40;99.90;;;;;;4992864;28;20496;-68
2024/01/27 02:08:17;;;;;;;8.90;4.07;;;6.30;99.90;;;;;;4995622;28;20263;-68
2024/01/27 02:10:43;;;;;;;5.50;3.63;;;6.30;99.90;;;;;;4995815;28;20464;-69
2024/01/27 02:13:19;;;;;;;9.13;3.83;;;6.40;99.90;;;;;;4997505;28;20439;-68
2024/01/27 02:15:45;;;;;;;8.87;3.77;;;6.30;99.90;;;;;;5010217;28;20181;-69
2024/01/27 02:18:10;;;;;;;6.23;3.60;;;6.30;99.90;;;;;;4995495;28;20421;-69
2024/01/27 02:20:37;;;;;;;7.47;4.10;;;6.40;99.90;;;;;;4994246;28;20540;-68
2024/01/27 02:23:04;;;;;;;8.60;4.17;;;6.30;99.90;;;;;;4993633;28;20185;-69
2024/01/27 02:25:30;;;;;;;7.57;4.73;;;6.30;99.90;;;;;;4999114;28;20478;-69
2024/01/27 02:27:56;;;;;;;5.27;3.60;;;6.20;99.90;;;;;;4998495;28;20442;-69
2024/01/27 02:30:22;;;;;;;8.00;4.00;;;6.20;99.90;;;;;;4997508;28;20460;-69
2024/01/27 02:32:47;;;;;;;9.40;3.87;;;6.20;99.90;;;;;;4993964;28;20543;-69
2024/01/27 02:35:14;;;;;;;4.90;3.47;;;6.20;99.90;;;;;;4995400;28;20255;-69
2024/01/27 02:37:40;;;;;;;5.90;4.27;;;6.20;99.90;;;;;;4996733;28;20181;-69
2024/01/27 02:40:07;;;;;;;7.97;4.17;;;6.20;99.90;;;;;;4995366;28;20435;-69
2024/01/27 02:42:32;;;;;;;6.27;4.20;;;6.10;99.90;;;;;;4988414;28;20424;-69
2024/01/27 02:44:58;;;;;;;5.90;3.47;;;6.10;99.90;;;;;;4997660;28;20559;-69
2024/01/27 02:47:24;;;;;;;6.27;3.83;;;6.00;99.90;;;;;;4992562;28;20190;-69
2024/01/27 02:49:49;;;;;;;10.90;4.07;;;6.00;99.90;;;;;;4996845;28;20573;-69
2024/01/27 02:52:15;;;;;;;7.00;3.80;;;6.00;99.90;;;;;;4994602;28;20181;-69
2024/01/27 02:54:40;;;;;;;6.80;4.50;;;5.90;99.90;;;;;;4993933;28;20690;-69
2024/01/27 02:57:06;;;;;;;8.53;4.50;;;5.90;99.90;;;;;;4998631;28;20993;-69
2024/01/27 02:59:32;;;;;;;6.50;3.50;;;5.90;99.90;;;;;;4999312;28;20181;-69
2024/01/27 03:01:57;;;;;;;5.37;4.00;;;5.80;99.90;;;;;;4997153;28;20290;-69
2024/01/27 03:04:23;;;;;;;9.13;3.83;;;5.80;99.90;;;;;;4997279;28;20687;-69
2024/01/27 03:06:48;;;;;;;6.23;3.63;;;5.80;99.90;;;;;;4991278;28;20196;-69
2024/01/27 03:09:14;;;;;;;6.80;4.80;;;5.80;99.90;;;;;;4993578;28;20208;-69
2024/01/27 03:11:39;;;;;;;11.20;3.87;;;5.80;99.90;;;;;;4993456;28;20750;-68
2024/01/27 03:14:05;;;;;;;6.70;4.00;;;5.70;99.90;;;;;;4992338;28;20297;-68
2024/01/27 03:16:31;;;;;;;4.40;3.30;;;5.60;99.90;;;;;;4992680;28;20212;-69
2024/01/27 03:18:56;;;;;;;4.30;3.20;;;5.70;99.90;;;;;;4999084;28;20185;-69
2024/01/27 03:21:22;;;;;;;5.00;3.43;;;5.60;99.90;;;;;;4993386;28;20440;-70
2024/01/27 03:23:47;;;;;;;5.90;3.37;;;5.60;99.90;;;;;;4993196;28;20205;-69
2024/01/27 03:26:13;;;;;;;6.00;4.07;;;5.60;99.90;;;;;;4994971;28;20188;-68
2024/01/27 03:28:38;;;;;;;4.57;3.27;;;5.50;99.90;;;;;;4994549;28;20242;-69
2024/01/27 03:31:04;;;;;;;7.43;3.43;;;5.50;99.90;;;;;;4992292;28;20636;-69
2024/01/27 03:33:30;;;;;;;11.30;3.67;;;5.50;99.90;;;;;;4994726;28;20607;-69
2024/01/27 03:35:56;;;;;;;10.50;4.30;;;5.50;99.90;;;;;;4994828;28;20178;-69
2024/01/27 03:38:24;;;;;;;4.03;2.90;;;5.50;99.90;;;;;;4991149;28;20441;-68
2024/01/27 03:40:50;;;;;;;6.67;3.60;;;5.50;99.90;;;;;;5003398;28;20420;-67
2024/01/27 03:43:16;;;;;;;8.50;3.70;;;5.50;99.90;;;;;;4996046;28;20936;-68
2024/01/27 03:45:41;;;;;;;6.37;3.50;;;5.40;99.90;;;;;;4993436;28;20191;-70
2024/01/27 03:48:07;;;;;;;7.80;4.33;;;5.40;99.90;;;;;;4995021;28;20193;-69
2024/01/27 03:50:32;;;;;;;6.50;3.40;;;5.50;99.90;;;;;;4994572;28;20682;-69
2024/01/27 03:52:58;;;;;;;5.33;3.60;;;5.50;99.90;;;;;;5010891;28;20672;-68
2024/01/27 03:55:24;;;;;;;5.47;3.30;;;5.40;99.90;;;;;;4996476;28;20435;-69
2024/01/27 03:57:50;;;;;;;14.63;3.80;;;5.40;99.90;;;;;;4997122;28;20588;-68
2024/01/27 04:00:15;;;;;;;4.87;3.03;;;5.40;99.90;;;;;;4997306;28;20619;-69
2024/01/27 04:02:41;;;;;;;6.90;3.37;;;5.40;99.90;;;;;;4995686;28;20271;-68
2024/01/27 04:05:07;;;;;;;4.93;3.40;;;5.40;99.90;;;;;;4995696;28;20592;-68
2024/01/27 04:07:32;;;;;;;5.17;3.20;;;5.40;99.90;;;;;;4994323;28;20732;-68
2024/01/27 04:09:58;;;;;;;7.10;3.50;;;5.40;99.90;;;;;;4992172;28;20468;-68
2024/01/27 04:12:24;;;;;;;6.10;3.57;;;5.40;99.90;;;;;;5000831;28;20185;-68
2024/01/27 04:14:49;;;;;;;10.83;3.83;;;5.40;99.90;;;;;;4998833;28;20208;-68
2024/01/27 04:17:15;;;;;;;4.50;3.03;;;5.40;99.90;;;;;;5000259;28;20584;-69
2024/01/27 04:19:40;;;;;;;4.80;3.43;;;5.40;99.90;;;;;;4996497;28;20261;-68
2024/01/27 04:22:06;;;;;;;5.70;3.33;;;5.30;99.90;;;;;;4998509;28;20196;-68
2024/01/27 04:24:32;;;;;;;7.03;3.70;;;5.30;99.90;;;;;;5001559;28;20304;-68
2024/01/27 04:26:59;;;;;;;8.07;3.77;;;5.30;99.90;;;;;;5003325;28;20465;-68
2024/01/27 04:29:25;;;;;;;4.87;3.30;;;5.30;99.90;;;;;;4997173;28;20189;-68
2024/01/27 04:31:50;;;;;;;9.83;4.17;;;5.30;99.90;;;;;;4995513;28;21183;-68
2024/01/27 04:34:16;;;;;;;7.17;3.80;;;5.20;99.90;;;;;;4995837;28;20197;-68
2024/01/27 04:36:41;;;;;;;6.73;3.10;;;5.20;99.90;;;;;;4994001;28;20189;-68
2024/01/27 04:39:07;;;;;;;6.47;3.33;;;5.20;99.90;;;;;;5001077;28;20193;-68
2024/01/27 04:41:40;;;;;;;6.90;3.27;;;5.20;99.90;;;;;;4996340;28;20189;-69
2024/01/27 04:44:06;;;;;;;7.63;3.90;;;5.20;99.90;;;;;;4999492;28;20224;-68
2024/01/27 04:46:31;;;;;;;5.90;3.40;;;5.20;99.90;;;;;;4993535;28;20428;-68
2024/01/27 04:48:57;;;;;;;6.30;3.40;;;5.10;99.90;;;;;;4995958;28;20204;-68
2024/01/27 04:51:22;;;;;;;6.70;3.90;;;5.00;99.90;;;;;;4995537;28;20522;-69
2024/01/27 04:53:48;;;;;;;7.77;3.70;;;4.90;99.90;;;;;;4994870;28;20287;-69
2024/01/27 04:56:14;;;;;;;6.37;3.47;;;4.90;99.90;;;;;;5002451;28;20184;-69
2024/01/27 04:58:39;;;;;;;4.57;3.80;;;4.90;99.90;;;;;;4998011;28;20260;-69
2024/01/27 05:01:06;;;;;;;7.87;3.03;;;4.90;99.90;;;;;;5000255;28;20563;-68
2024/01/27 05:03:32;;;;;;;5.87;3.87;;;4.80;99.90;;;;;;4998956;28;20212;-68
2024/01/27 05:05:57;;;;;;;4.83;3.30;;;4.80;99.90;;;;;;4993664;28;20432;-68
2024/01/27 05:08:23;;;;;;;8.27;3.73;;;4.80;99.90;;;;;;5000738;28;20193;-68
2024/01/27 05:10:48;;;;;;;7.03;2.97;;;4.90;99.90;;;;;;4997204;28;20224;-69
2024/01/27 05:13:14;;;;;;;9.07;3.20;;;4.80;99.90;;;;;;4995115;28;20254;-68
2024/01/27 05:15:39;;;;;;;6.07;3.27;;;4.80;99.90;;;;;;4997724;28;20181;-68
2024/01/27 05:18:05;;;;;;;9.80;3.30;;;4.80;99.90;;;;;;5000608;28;20270;-68
2024/01/27 05:20:30;;;;;;;6.33;3.23;;;4.80;99.90;;;;;;4998419;28;20822;-68
2024/01/27 05:22:56;;;;;;;5.10;3.43;;;4.80;99.90;;;;;;4994721;28;20185;-68
2024/01/27 05:25:22;;;;;;;9.43;3.83;;;4.80;99.90;;;;;;5000432;28;20324;-68
2024/01/27 05:27:47;;;;;;;5.10;3.00;;;4.80;99.90;;;;;;4991618;28;20185;-69
2024/01/27 05:30:14;;;;;;;7.13;3.87;;;4.80;99.90;;;;;;5001415;28;20223;-68
2024/01/27 05:32:40;;;;;;;10.50;4.23;;;4.90;99.90;;;;;;4994582;28;20181;-68
2024/01/27 05:35:06;;;;;;;6.50;4.70;;;4.90;99.90;;;;;;4994583;28;20448;-68
2024/01/27 05:37:31;;;;;;;5.50;3.47;;;4.90;99.90;;;;;;4994382;28;20331;-68
2024/01/27 05:39:57;;;;;;;7.53;3.30;;;4.90;99.90;;;;;;5001566;28;20529;-69
2024/01/27 05:42:22;;;;;;;6.40;4.23;;;4.90;99.90;;;;;;5010513;28;20557;-70
2024/01/27 05:44:48;;;;;;;10.13;4.30;;;4.80;99.90;;;;;;4997964;28;20308;-68
2024/01/27 05:47:13;;;;;;;6.47;3.80;;;4.80;99.90;;;;;;4996323;28;20268;-68
2024/01/27 05:49:39;;;;;;;5.57;3.50;;;4.80;99.90;;;;;;4990507;28;20189;-68
2024/01/27 05:52:05;;;;;;;7.80;3.70;;;4.90;99.90;;;;;;4995571;28;20184;-69
2024/01/27 05:54:30;;;;;;;6.70;3.77;;;4.90;99.90;;;;;;4994023;28;20767;-68
2024/01/27 05:56:56;;;;;;;7.67;3.60;;;4.90;99.90;;;;;;4991693;28;21041;-69
2024/01/27 05:59:22;;;;;;;9.10;3.70;;;4.90;99.90;;;;;;4995058;28;20181;-68
2024/01/27 06:01:47;;;;;;;6.43;4.10;;;4.90;99.90;;;;;;4996455;28;20412;-68
2024/01/27 06:04:13;;;;;;;5.83;3.63;;;4.80;99.90;;;;;;4993685;28;20590;-68
2024/01/27 06:06:42;;;;;;;5.47;3.60;;;4.90;99.90;;;;;;4994111;28;20191;-68
2024/01/27 06:09:11;;;;;;;5.30;3.30;;;4.90;99.90;;;;;;4993916;28;20205;-68
2024/01/27 06:11:37;;;;;;;5.80;3.73;;;4.90;99.90;;;;;;4993991;28;20474;-68
2024/01/27 06:14:03;;;;;;;6.43;4.07;;;4.80;99.90;;;;;;4997785;28;20511;-68
2024/01/27 06:16:28;;;;;;;8.03;4.03;;;4.80;99.90;;;;;;4996992;28;21111;-68
2024/01/27 06:18:54;;;;;;;5.10;3.70;;;4.70;99.90;;;;;;4993763;28;20420;-68
2024/01/27 06:21:20;;;;;;;6.27;3.60;;;4.70;99.90;;;;;;4996315;28;20189;-68
2024/01/27 06:23:46;;;;;;;6.20;3.63;;;4.70;99.90;;;;;;4995561;28;20494;-68
2024/01/27 06:26:13;;;;;;;12.43;4.00;;;4.70;99.90;;;;;;4999163;28;20825;-68
2024/01/27 06:28:39;;;;;;;8.77;3.63;;;4.70;99.90;;;;;;5002565;28;20192;-68
2024/01/27 06:31:06;;;;;;;5.70;3.40;;;4.70;99.90;;;;;;4992853;28;20975;-68
2024/01/27 06:33:31;;;;;;;7.43;3.77;;;4.70;99.90;;;;;;4998619;28;21300;-69
2024/01/27 06:35:57;;;;;;;5.83;3.93;;;4.70;99.90;;;;;;5007367;28;20420;-68
2024/01/27 06:38:23;;;;;;;6.80;4.07;;;4.70;99.90;;;;;;4997087;28;20181;-68
2024/01/27 06:40:48;;;;;;;4.30;3.50;;;4.70;99.90;;;;;;4992504;28;20188;-68
2024/01/27 06:43:14;;;;;;;4.30;3.30;;;4.70;99.90;;;;;;4998652;28;20559;-68
2024/01/27 06:45:40;;;;;;;5.90;3.90;;;4.70;99.90;;;;;;4998919;28;20220;-68
2024/01/27 06:48:07;;;;;;;6.70;3.77;;;4.70;99.90;;;;;;5000206;28;20185;-68
2024/01/27 06:50:33;;;;;;;5.03;3.93;;;4.70;99.90;;;;;;4996089;28;20582;-68
2024/01/27 06:52:59;;;;;;;7.43;4.40;;;4.70;99.90;;;;;;4995115;28;20432;-68
2024/01/27 06:55:25;;;;;;;6.00;4.13;;;4.70;99.90;;;;;;4994315;28;20463;-68
2024/01/27 06:57:50;;;;;;;5.90;3.93;;;4.70;99.90;;;;;;4991542;28;20182;-68
2024/01/27 07:00:17;;;;;;;7.97;4.03;;;4.70;99.90;;;;;;4995028;28;20807;-68
2024/01/27 07:02:43;;;;;;;12.13;3.90;;;4.70;99.90;;;;;;4988109;28;20288;-68
2024/01/27 07:05:09;;;;;;;7.30;4.10;;;4.70;99.90;;;;;;4992558;28;20487;-69
2024/01/27 07:07:35;;;;;;;8.10;4.30;;;4.70;99.90;;;;;;4992882;28;20224;-68
2024/01/27 07:10:02;;;;;;;9.20;3.80;;;4.70;99.90;;;;;;4993857;28;20303;-68
2024/01/27 07:12:27;;;;;;;8.83;4.03;;;4.70;99.90;;;;;;4995238;28;20443;-69
2024/01/27 07:14:54;;;;;;;6.10;4.10;;;4.80;99.90;;;;;;4989587;28;20506;-69
2024/01/27 07:17:20;;;;;;;7.40;4.50;;;4.70;99.90;;;;;;4997468;28;20177;-68
2024/01/27 07:19:46;;;;;;;9.57;5.03;;;4.70;99.90;;;;;;4994108;28;20933;-68
2024/01/27 07:22:12;;;;;;;8.77;5.50;;;4.80;99.90;;;;;;4995676;28;20581;-68
2024/01/27 07:24:37;;;;;;;9.60;5.10;;;4.80;99.90;;;;;;5006707;28;20563;-68
2024/01/27 07:27:03;;;;;;;8.10;4.57;;;4.80;99.90;;;;;;4991238;28;20189;-68
2024/01/27 07:29:29;;;;;;;11.77;5.07;;;4.80;99.90;;;;;;4996813;28;20304;-68
2024/01/27 07:31:55;;;;;;;9.00;5.40;;;4.80;99.90;;;;;;4994874;28;20558;-69
2024/01/27 07:34:21;;;;;;;7.33;4.17;;;4.80;99.90;;;;;;5007386;28;20307;-68
2024/01/27 07:36:49;;;;;;;8.70;4.57;;;4.80;99.90;;;;;;4991212;28;20416;-68
2024/01/27 07:39:14;;;;;;;5.87;3.90;;;4.80;99.90;;;;;;4990455;28;20200;-68
2024/01/27 07:41:40;;;;;;;7.37;4.10;;;4.80;99.90;;;;;;4997755;28;20447;-69
2024/01/27 07:44:15;;;;;;;5.13;3.67;;;4.80;99.90;;;;;;4993256;28;20204;-68
2024/01/27 07:46:41;;;;;;;8.87;5.03;;;4.80;99.90;;;;;;4995647;28;20188;-68
2024/01/27 07:49:08;;;;;;;5.37;3.50;;;4.80;99.90;;;;;;4999216;28;21029;-68
2024/01/27 07:51:34;;;;;;;5.77;3.80;;;4.80;99.90;;;;;;4998654;28;20460;-68
2024/01/27 07:54:00;;;;;;;6.30;4.50;;;4.80;99.90;;;;;;4996679;28;20460;-70
2024/01/27 07:56:26;;;;;;;14.80;8.20;;;4.80;99.90;;;;;;4997290;28;20420;-68
2024/01/27 07:58:52;;;;;;;7.20;4.27;;;4.80;99.90;;;;;;4996345;28;20469;-68
2024/01/27 08:01:18;;;;;;;10.93;4.33;;;4.80;99.90;;;;;;4995952;28;20436;-68
2024/01/27 08:03:44;;;;;;;7.00;4.00;;;4.80;99.90;;;;;;4994709;28;20692;-68
2024/01/27 08:06:18;;;;;;;9.50;4.83;;;4.80;99.90;;;;;;4991373;28;20486;-68
2024/01/27 08:08:48;;;;;;;5.30;3.73;;;4.80;99.90;;;;;;4990555;28;20213;-70
2024/01/27 08:11:14;;;;;;;5.77;3.93;;;4.80;99.90;;;;;;4989702;28;21287;-68
2024/01/27 08:13:41;;;;;;;5.43;4.63;;;4.80;99.90;;;;;;4991938;28;20463;-68
2024/01/27 08:16:09;;;;;;;5.33;3.90;;;4.80;99.90;;;;;;4992660;28;20566;-69
2024/01/27 08:18:36;;;;;;;8.23;4.03;;;4.80;99.90;;;;;;4985711;28;20467;-68
2024/01/27 08:21:03;;;;;;;5.80;4.30;;;4.80;99.90;;;;;;4983066;28;20453;-68
2024/01/27 08:23:28;;;;;;;4.30;3.30;;;4.80;99.90;;;;;;4990135;28;20468;-68
2024/01/27 08:25:54;;;;;;;13.60;5.10;;;4.90;99.90;;;;;;4992298;28;20508;-69
2024/01/27 08:28:19;;;;;;;7.90;4.93;;;4.90;99.90;;;;;;4994620;28;20193;-69
2024/01/27 08:30:45;;;;;;;7.97;5.10;;;4.90;99.90;;;;;;4991605;28;20213;-69
2024/01/27 08:33:11;;;;;;;8.57;5.40;;;4.90;99.90;;;;;;4995601;28;20189;-70
2024/01/27 08:35:37;;;;;;;8.27;5.20;;;5.00;99.90;;;;;;4999064;28;20844;-72
2024/01/27 08:38:03;;;;;;;7.70;5.13;;;5.00;99.90;;;;;;5000034;28;20189;-70
2024/01/27 08:40:29;;;;;;;7.47;4.40;;;5.00;99.90;;;;;;4994874;28;20189;-70
2024/01/27 08:42:55;;;;;;;11.37;5.57;;;5.10;99.90;;;;;;4996733;28;21036;-70
2024/01/27 08:45:20;;;;;;;10.40;4.80;;;5.10;99.90;;;;;;4998564;28;20215;-70
2024/01/27 08:47:46;;;;;;;9.77;5.00;;;5.10;99.90;;;;;;4996341;28;20182;-70
2024/01/27 08:50:12;;;;;;;7.97;4.67;;;5.20;99.90;;;;;;4994713;28;20213;-70
2024/01/27 08:52:37;;;;;;;5.90;4.53;;;5.20;99.90;;;;;;5000198;28;20658;-72
2024/01/27 08:55:03;;;;;;;7.67;4.60;;;5.20;99.90;;;;;;4994058;28;20221;-69
2024/01/27 08:57:29;;;;;;;7.80;4.93;;;5.20;99.90;;;;;;4996590;28;20247;-69
2024/01/27 08:59:55;;;;;;;9.40;6.53;;;5.20;99.90;;;;;;4995936;28;20474;-70
2024/01/27 09:02:20;;;;;;;7.40;5.83;;;5.20;99.90;;;;;;4998860;28;20204;-70
2024/01/27 09:04:46;;;;;;;7.53;5.17;;;5.30;99.90;;;;;;5003663;28;20344;-69
2024/01/27 09:07:12;;;;;;;8.87;5.00;;;5.40;99.90;;;;;;4994330;28;20244;-69
2024/01/27 09:09:40;;;;;;;6.53;4.33;;;5.60;99.90;;;;;;4997846;28;20235;-69
2024/01/27 09:12:06;;;;;;;7.90;4.40;;;5.50;99.90;;;;;;4994747;28;20196;-69
2024/01/27 09:14:33;;;;;;;6.90;4.23;;;5.20;99.90;;;;;;4997508;28;20498;-69
2024/01/27 09:16:59;;;;;;;14.47;4.83;;;5.20;99.90;;;;;;4994753;28;20185;-69
2024/01/27 09:19:25;;;;;;;8.03;4.10;;;5.20;99.90;;;;;;4993626;28;20425;-70
2024/01/27 09:21:51;;;;;;;7.43;4.77;;;5.20;99.90;;;;;;4996765;28;20448;-69
2024/01/27 09:24:16;;;;;;;7.90;4.87;;;5.20;99.90;;;;;;4993001;28;20213;-68
2024/01/27 09:26:42;;;;;;;5.50;4.73;;;5.30;99.90;;;;;;4993818;28;20198;-70
2024/01/27 09:29:09;;;;;;;8.33;4.67;;;5.30;99.90;;;;;;4997127;28;20272;-70
2024/01/27 09:31:35;;;;;;;10.70;5.70;;;5.40;99.90;;;;;;4992729;28;20469;-70
2024/01/27 09:34:01;;;;;;;8.63;5.70;;;5.50;99.90;;;;;;4997095;28;20459;-69
2024/01/27 09:36:26;;;;;;;9.03;5.30;;;5.50;99.90;;;;;;4994506;28;20535;-70
2024/01/27 09:38:52;;;;;;;7.60;5.43;;;5.50;99.90;;;;;;4995289;28;21303;-70
2024/01/27 09:41:18;;;;;;;10.13;5.40;;;5.60;99.90;;;;;;4996251;28;20259;-70
2024/01/27 09:43:45;;;;;;;7.90;5.43;;;5.60;99.90;;;;;;4994746;28;20247;-70
2024/01/27 09:46:15;;;;;;;7.70;5.60;;;5.70;99.90;;;;;;4994068;28;20816;-70
2024/01/27 09:48:41;;;;;;;8.20;4.53;;;5.80;99.90;;;;;;4992573;28;20722;-70
2024/01/27 09:51:09;;;;;;;8.23;5.20;;;5.80;99.90;;;;;;4993290;28;20572;-69
2024/01/27 09:53:35;;;;;;;14.00;4.50;;;5.80;99.90;;;;;;4993776;28;20201;-70
2024/01/27 09:56:01;;;;;;;5.97;4.00;;;5.90;99.90;;;;;;4989357;28;20444;-69
2024/01/27 09:58:29;;;;;;;8.87;4.47;;;5.90;99.90;;;;;;4993807;28;20185;-69
2024/01/27 10:00:59;;;;;;;7.73;4.60;;;5.90;99.90;;;;;;4990963;28;20498;-70
2024/01/27 10:03:26;;;;;;;6.50;4.20;;;6.00;99.90;;;;;;4991470;28;20448;-68
2024/01/27 10:05:53;;;;;;;5.80;4.47;;;6.10;99.90;;;;;;4992562;28;20446;-70
2024/01/27 10:08:21;;;;;;;10.73;4.80;;;6.10;99.90;;;;;;4992469;28;21025;-70
2024/01/27 10:10:47;;;;;;;8.00;4.53;;;6.10;99.90;;;;;;4992182;28;20558;-70
2024/01/27 10:13:17;;;;;;;7.37;4.30;;;6.20;99.90;;;;;;4994349;28;21201;-71
2024/01/27 10:15:43;;;;;;;12.50;5.43;;;6.20;99.90;;;;;;4995870;28;20240;-67
2024/01/27 10:18:12;;;;;;;7.30;4.20;;;6.30;99.90;;;;;;5000234;28;20437;-70
2024/01/27 10:20:42;;;;;;;7.80;4.53;;;6.30;99.90;;;;;;4995933;28;20449;-69
2024/01/27 10:23:11;;;;;;;8.50;4.80;;;6.40;99.90;;;;;;4997785;28;20454;-70
2024/01/27 10:25:38;;;;;;;21.50;12.53;;;6.40;99.90;;;;;;4996029;28;20505;-70
2024/01/27 10:28:06;;;;;;;9.60;6.70;;;6.50;99.90;;;;;;4997339;28;20447;-69
2024/01/27 10:30:32;;;;;;;10.67;4.90;;;6.50;99.90;;;;;;4997055;28;20872;-70
2024/01/27 10:32:57;;;;;;;10.20;5.70;;;6.50;99.90;;;;;;4997805;28;20451;-70
2024/01/27 10:35:23;;;;;;;10.33;6.43;;;6.60;99.90;;;;;;4995433;28;20192;-69
2024/01/27 10:37:52;;;;;;;10.03;5.53;;;6.70;99.90;;;;;;4996773;28;20188;-70
2024/01/27 10:40:18;;;;;;;7.67;5.30;;;6.70;99.90;;;;;;4996052;28;20213;-68
2024/01/27 10:42:45;;;;;;;10.57;5.60;;;6.80;99.90;;;;;;4997345;28;20834;-69
2024/01/27 10:45:12;;;;;;;8.27;5.70;;;6.90;99.90;;;;;;4993999;28;20449;-69
2024/01/27 10:47:39;;;;;;;11.47;5.40;;;6.90;99.90;;;;;;4996897;28;20472;-69
2024/01/27 10:50:08;;;;;;;8.70;5.43;;;6.90;99.90;;;;;;4993582;28;20476;-69
2024/01/27 10:52:41;;;;;;;14.50;5.40;;;7.00;99.90;;;;;;4992720;28;20478;-69
2024/01/27 10:55:09;;;;;;;10.33;6.43;;;7.00;99.90;;;;;;4994039;28;20602;-69
2024/01/27 10:57:35;;;;;;;6.60;5.67;;;7.10;99.90;;;;;;4989833;28;20456;-69
2024/01/27 11:00:03;;;;;;;10.40;5.30;;;7.10;99.90;;;;;;4992751;28;20486;-70
2024/01/27 11:02:33;;;;;;;12.93;5.10;;;7.20;99.90;;;;;;4995578;28;20413;-69
2024/01/27 11:05:02;;;;;;;10.30;5.70;;;7.20;99.90;;;;;;4986525;28;20460;-70
2024/01/27 11:07:28;;;;;;;8.53;5.70;;;7.30;99.90;;;;;;4988944;28;20511;-70
2024/01/27 11:09:54;;;;;;;8.00;5.10;;;7.40;99.90;;;;;;4994542;28;20459;-69
2024/01/27 11:12:22;;;;;;;8.50;4.60;;;7.40;99.90;;;;;;4997377;28;20526;-69
2024/01/27 11:14:50;;;;;;;11.40;5.20;;;7.40;99.90;;;;;;4992374;28;20224;-69
2024/01/27 11:17:16;;;;;;;5.87;4.57;;;7.50;99.90;;;;;;4993381;28;21022;-69
2024/01/27 11:19:42;;;;;;;10.13;5.73;;;7.60;99.90;;;;;;4993352;28;21189;-69
2024/01/27 11:22:08;;;;;;;6.83;4.33;;;7.60;99.90;;;;;;4994487;28;20445;-69
2024/01/27 11:24:33;;;;;;;8.67;5.27;;;7.70;99.90;;;;;;4994453;28;20208;-70
2024/01/27 11:27:03;;;;;;;8.30;4.37;;;7.70;99.90;;;;;;4991993;28;20197;-68
2024/01/27 11:29:31;;;;;;;14.63;5.00;;;7.70;99.90;;;;;;4989613;28;20186;-70
2024/01/27 11:31:59;;;;;;;6.67;4.03;;;7.80;99.90;;;;;;5005233;28;20777;-71
2024/01/27 11:34:25;;;;;;;11.27;4.90;;;7.80;99.90;;;;;;4990306;28;20468;-71
2024/01/27 11:36:50;;;;;;;7.23;4.37;;;7.90;99.90;;;;;;4992930;28;20433;-70
2024/01/27 11:39:30;;;;;;;11.20;4.80;;;7.90;99.90;;;;;;4991130;28;20196;-70
2024/01/27 11:42:05;;;;;;;6.60;4.13;;;8.00;99.90;;;;;;4990335;28;20181;-70
2024/01/27 11:44:34;;;;;;;7.00;3.93;;;8.00;99.90;;;;;;4997254;28;20455;-69
2024/01/27 11:47:00;;;;;;;8.77;4.27;;;8.10;99.90;;;;;;4998803;28;21216;-68
2024/01/27 11:49:26;;;;;;;11.33;4.20;;;8.20;99.90;;;;;;4996477;28;20523;-69
2024/01/27 11:51:52;;;;;;;10.53;4.83;;;8.20;99.90;;;;;;4995769;28;20252;-69
2024/01/27 11:54:17;;;;;;;6.47;4.40;;;8.20;99.90;;;;;;4994306;28;20472;-69
2024/01/27 11:56:43;;;;;;;6.37;4.77;;;8.30;99.90;;;;;;4997023;28;20209;-69
2024/01/27 11:59:10;;;;;;;7.27;5.00;;;8.40;99.90;;;;;;4998326;28;20215;-69
2024/01/27 12:01:36;;;;;;;8.67;4.60;;;8.50;99.90;;;;;;4993042;28;20193;-69
2024/01/27 12:04:04;;;;;;;6.37;4.80;;;8.70;99.90;;;;;;5001274;28;20440;-69
2024/01/27 12:06:30;;;;;;;9.13;4.73;;;8.70;99.90;;;;;;4996176;28;20491;-69
2024/01/27 12:08:57;;;;;;;9.13;4.30;;;8.90;99.90;;;;;;4996857;28;20444;-69
2024/01/27 12:11:24;;;;;;;10.00;5.63;;;9.00;99.90;;;;;;5001369;28;20467;-69
2024/01/27 12:13:52;;;;;;;8.60;5.10;;;9.10;99.90;;;;;;5003519;28;20455;-70
2024/01/27 12:16:18;;;;;;;7.87;4.07;;;9.20;99.90;;;;;;5000354;28;20526;-70
2024/01/27 12:18:45;;;;;;;8.10;4.10;;;9.30;99.90;;;;;;5001290;28;20428;-70
2024/01/27 12:21:10;;;;;;;6.63;4.60;;;9.40;99.90;;;;;;4998907;28;20196;-70
2024/01/27 12:23:36;;;;;;;8.43;4.50;;;9.60;99.90;;;;;;5001143;28;20459;-70
2024/01/27 12:26:02;;;;;;;6.40;4.17;;;9.90;99.90;;;;;;4998379;28;20220;-70
2024/01/27 12:28:28;;;;;;;6.50;4.80;;;11.30;99.90;;;;;;4999037;28;20198;-69
2024/01/27 12:30:54;;;;;;;8.03;4.40;;;13.70;99.90;;;;;;4997624;28;20667;-68
2024/01/27 12:33:24;;;;;;;14.60;4.97;;;16.10;99.90;;;;;;5000778;28;20201;-69
2024/01/27 12:35:50;;;;;;;11.23;5.03;;;18.20;99.90;;;;;;4998819;28;20939;-70
2024/01/27 12:38:17;;;;;;;7.93;4.70;;;20.00;99.90;;;;;;5003412;28;20423;-70
2024/01/27 12:40:43;;;;;;;11.37;4.30;;;21.50;99.90;;;;;;4995980;28;20201;-70
2024/01/27 12:43:11;;;;;;;7.63;4.33;;;22.70;99.90;;;;;;4999961;28;20420;-70
2024/01/27 12:45:37;;;;;;;5.97;3.97;;;23.70;99.20;;;;;;5010614;28;20189;-70
2024/01/27 12:48:05;;;;;;;5.90;5.27;;;24.80;94.90;;;;;;5001370;28;20741;-70
2024/01/27 12:50:32;;;;;;;7.47;4.27;;;25.60;90.80;;;;;;4993881;28;20464;-70